Flight Track Log - Related Links

Times and Time Zones

All times are in EDT time to prevent confusion due to time zone crossing. See the MSR45 flight status page for this flight to view local times or setup timezone preferences in your user account.

Time Position Orientation Groundspeed Altitude Reporting Facility
EDT Latitude Longitude Course Direction KTS MPH feet Rate Location/Type
Mon 06:26:00 PM 27.6223 33.4489 325° Northwest  Level Estimated
Mon 06:27:00 PM 27.6962 33.3902 325° Northwest  Level Estimated
Mon 06:28:00 PM 27.7701 33.3315 325° Northwest  Level Estimated
Mon 06:29:00 PM 27.8439 33.2726 325° Northwest  Level Estimated
Mon 06:30:00 PM 27.9178 33.2137 325° Northwest  Level Estimated
Mon 06:31:00 PM 27.9916 33.1547 325° Northwest  Level Estimated
Mon 06:32:00 PM 28.0653 33.0956 325° Northwest  Level Estimated
Mon 06:33:00 PM 28.1391 33.0364 325° Northwest  Level Estimated
Mon 06:34:00 PM 28.2128 32.9771 325° Northwest  Level Estimated
Mon 06:35:00 PM 28.2866 32.9178 325° Northwest  Level Estimated
Mon 06:36:00 PM 28.3602 32.8584 325° Northwest  Level Estimated
Mon 06:37:00 PM 28.4339 32.7989 325° Northwest  Level Estimated
Mon 06:38:00 PM 28.5075 32.7393 325° Northwest  Level Estimated
Mon 06:39:00 PM 28.5811 32.6796 325° Northwest  Level Estimated
Mon 06:40:00 PM 28.6547 32.6199 325° Northwest  Level Estimated
Mon 06:41:00 PM 28.7283 32.5600 325° Northwest  Level Estimated
Mon 06:42:00 PM 28.8018 32.5001 324° Northwest  Level Estimated
Mon 06:43:00 PM 28.8753 32.4401 324° Northwest  Level Estimated
Mon 06:44:00 PM 28.9487 32.3800 324° Northwest  Level Estimated
Mon 06:45:00 PM 29.0222 32.3198 324° Northwest  Level Estimated
Mon 06:46:00 PM 29.0956 32.2596 324° Northwest  Level Estimated
Mon 06:47:00 PM 29.1690 32.1992 324° Northwest  Level Estimated
Mon 06:48:00 PM 29.2423 32.1388 324° Northwest  Level Estimated
Mon 06:49:00 PM 29.3157 32.0783 324° Northwest  Level Estimated
Mon 06:50:00 PM 29.3890 32.0177 324° Northwest  Level Estimated
Mon 06:51:00 PM 29.4623 31.9570 324° Northwest  Level Estimated
Mon 06:52:00 PM 29.5355 31.8962 324° Northwest  Level Estimated
Mon 06:53:00 PM 29.6088 31.8353 324° Northwest  Level Estimated
Mon 06:54:00 PM 29.6820 31.7744 324° Northwest  Level Estimated
Mon 06:55:00 PM 29.7551 31.7133 324° Northwest  Level Estimated
Mon 06:56:00 PM 29.8283 31.6522 324° Northwest  Level Estimated
Mon 06:57:00 PM 29.9014 31.5909 324° Northwest  Level Estimated
Mon 06:58:00 PM 29.9745 31.5296 324° Northwest  Level Estimated
Mon 06:59:00 PM 30.0475 31.4682 324° Northwest  Level Estimated
Mon 07:00:00 PM 30.1206 31.4067 324° Northwest  Level Estimated
Mon 07:01:00 PM 30.1219 31.4056 324° Northwest  Level Estimated
Mon 07:02:00 PM 30.1219 31.4056 319° Northwest  Level Estimated
Mon 07:03:00 PM 30.1219 31.4056 319° Northwest  Level Estimated
Mon 07:04:00 PM 30.1219 31.4056 319° Northwest  Level Estimated
Mon 07:05:00 PM 30.1219 31.4056 319° Northwest  Level Estimated
Mon 07:06:00 PM 30.1219 31.4056 319° Northwest  Level Estimated
Mon 07:07:00 PM 30.1219 31.4056 319° Northwest  Level Estimated
Mon 07:08:00 PM 30.1219 31.4056 319° Northwest  Level Estimated
Mon 07:09:00 PM 30.1219 31.4056 319° Northwest  Level Estimated
Mon 07:10:00 PM 30.1219 31.4056 319° Northwest  Level Estimated
Mon 07:11:00 PM 30.1219 31.4056 319° Northwest  Level Estimated
Mon 07:12:00 PM 30.1219 31.4056 319° Northwest  Level Estimated
Mon 07:13:00 PM 30.1219 31.4056 319° Northwest  Level Estimated
Mon 07:14:00 PM 30.1219 31.4056 319° Northwest  Level Estimated
Mon 07:15:00 PM 30.1219 31.4056 319° Northwest  Level Estimated
Mon 07:16:00 PM 30.1219 31.4056 319° Northwest  Level Estimated

Login

Don't have an account? Register now (free) for customized features, flight alerts, and more!